Time;durP1;ratioP1;P1;durP2;ratioP2;P2;SDS_P1;SDS_P2;PMS_P1;PMS_P2;Temp;Humidity;BMP_temperature;BMP_pressure;BME280_temperature;BME280_humidity;BME280_pressure;Samples;Min_cycle;Max_cycle;Signal;HPM_P1;HPM_P2
2023/06/06 05:30:06;;;;;;;11.30;11.00;;;13.90;99.90;;;;;;5108281;22;20288;-82
2023/06/06 05:32:34;;;;;;;11.20;10.90;;;14.00;99.90;;;;;;5084086;28;21011;-83
2023/06/06 05:35:04;;;;;;;10.93;10.63;;;14.10;99.90;;;;;;5088901;28;20281;-83
2023/06/06 05:37:33;;;;;;;11.07;10.77;;;14.20;99.90;;;;;;5091994;28;20277;-82
2023/06/06 05:40:03;;;;;;;10.80;10.50;;;14.30;99.90;;;;;;5077160;28;20329;-80
2023/06/06 05:42:32;;;;;;;10.73;10.43;;;14.30;99.90;;;;;;5069989;28;20223;-80
2023/06/06 05:45:00;;;;;;;10.57;10.27;;;14.40;99.90;;;;;;5068444;28;20222;-82
2023/06/06 05:47:31;;;;;;;10.55;10.25;;;14.50;99.90;;;;;;5067915;28;20231;-81
2023/06/06 05:50:00;;;;;;;10.18;9.88;;;14.60;99.90;;;;;;5067494;28;20246;-81
2023/06/06 05:52:30;;;;;;;10.40;10.10;;;14.70;99.90;;;;;;5067004;28;20321;-81
2023/06/06 05:55:03;;;;;;;10.02;9.73;;;14.90;99.90;;;;;;5066730;28;20215;-81
2023/06/06 05:57:31;;;;;;;10.02;9.73;;;15.10;99.90;;;;;;5067070;28;20231;-82
2023/06/06 06:00:00;;;;;;;10.10;9.80;;;15.20;99.90;;;;;;5066590;28;20235;-82
2023/06/06 06:02:31;;;;;;;10.20;9.90;;;15.40;99.90;;;;;;5066164;28;20244;-82
2023/06/06 06:04:58;;;;;;;9.75;9.45;;;15.40;99.90;;;;;;5067040;28;20281;-81
2023/06/06 06:07:28;;;;;;;10.25;9.95;;;15.50;99.90;;;;;;5066959;28;20231;-82
2023/06/06 06:09:56;;;;;;;10.02;9.73;;;15.60;99.90;;;;;;5066789;28;20241;-82
2023/06/06 06:12:25;;;;;;;10.00;9.70;;;15.60;99.90;;;;;;5066983;28;20294;-82
2023/06/06 06:14:58;;;;;;;9.90;9.60;;;15.60;99.90;;;;;;5066490;28;20238;-81
2023/06/06 06:17:25;;;;;;;9.93;9.63;;;15.80;99.90;;;;;;5066825;28;20241;-82
2023/06/06 06:19:57;;;;;;;10.07;9.77;;;15.80;99.90;;;;;;5066173;28;20286;-82
2023/06/06 06:22:26;;;;;;;10.20;9.90;;;15.90;99.90;;;;;;5066620;28;20317;-82
2023/06/06 06:24:55;;;;;;;9.95;9.65;;;16.00;99.90;;;;;;5066420;28;20227;-82
2023/06/06 06:27:24;;;;;;;9.95;9.65;;;16.10;99.90;;;;;;5070189;28;20271;-82
2023/06/06 06:29:54;;;;;;;9.80;9.50;;;16.20;99.90;;;;;;5066678;28;20242;-82
2023/06/06 06:32:23;;;;;;;9.73;9.43;;;16.30;99.90;;;;;;5066158;28;20227;-83
2023/06/06 06:34:53;;;;;;;9.80;9.50;;;16.40;99.90;;;;;;5066547;28;20255;-81
2023/06/06 06:37:25;;;;;;;10.00;9.70;;;16.60;99.90;;;;;;5067792;28;20242;-81
2023/06/06 06:39:53;;;;;;;10.00;9.70;;;16.80;99.90;;;;;;5066113;28;20245;-82
2023/06/06 06:42:21;;;;;;;10.13;9.82;;;16.90;99.90;;;;;;5064931;28;21088;-82
2023/06/06 06:44:50;;;;;;;9.75;9.45;;;17.00;99.90;;;;;;5064853;28;20239;-82
2023/06/06 06:47:19;;;;;;;9.60;9.30;;;17.20;99.90;;;;;;5064507;28;20259;-83
2023/06/06 06:49:50;;;;;;;9.68;9.38;;;17.30;99.90;;;;;;5064803;28;20243;-82
2023/06/06 06:52:19;;;;;;;9.57;9.27;;;17.30;99.90;;;;;;5064412;28;20261;-82
2023/06/06 06:54:54;;;;;;;9.60;9.30;;;17.40;99.90;;;;;;5065584;28;20258;-82
2023/06/06 06:57:28;;;;;;;9.70;9.40;;;17.50;99.90;;;;;;5066748;28;20329;-82
2023/06/06 06:59:56;;;;;;;9.45;9.15;;;17.50;99.90;;;;;;5066472;28;20254;-82
2023/06/06 07:02:26;;;;;;;9.30;9.00;;;17.50;99.90;;;;;;5068142;28;20219;-82
2023/06/06 07:04:57;;;;;;;9.65;9.35;;;17.50;99.90;;;;;;5069145;28;20223;-81
2023/06/06 07:07:25;;;;;;;9.40;9.10;;;17.50;99.90;;;;;;5071575;28;20235;-82
2023/06/06 07:09:56;;;;;;;9.48;9.18;;;17.50;99.90;;;;;;5071011;28;20221;-81
2023/06/06 07:12:23;;;;;;;9.40;9.10;;;17.40;99.90;;;;;;5072974;28;20237;-81
2023/06/06 07:14:52;;;;;;;9.45;9.15;;;17.40;99.90;;;;;;5075304;28;20218;-81
2023/06/06 07:17:24;;;;;;;9.57;9.27;;;17.40;99.90;;;;;;5070852;28;20257;-81
2023/06/06 07:19:52;;;;;;;9.27;8.98;;;17.30;99.90;;;;;;5069059;28;20262;-81
2023/06/06 07:22:21;;;;;;;9.77;9.48;;;17.10;99.90;;;;;;5066614;28;20282;-78
2023/06/06 07:24:50;;;;;;;9.70;9.40;;;17.10;99.90;;;;;;5062709;28;20284;-83
2023/06/06 07:27:22;;;;;;;9.63;9.32;;;17.10;99.90;;;;;;5065727;28;20300;-83
2023/06/06 07:29:50;;;;;;;9.40;9.10;;;17.00;99.90;;;;;;5064593;28;20310;-84
2023/06/06 07:32:18;;;;;;;9.38;9.07;;;17.00;99.90;;;;;;5065672;28;20230;-83
2023/06/06 07:34:47;;;;;;;9.60;9.30;;;16.90;99.90;;;;;;5064860;28;20238;-82
2023/06/06 07:37:17;;;;;;;9.57;9.27;;;17.10;99.90;;;;;;5064756;28;20227;-83
2023/06/06 07:39:46;;;;;;;9.40;9.10;;;17.20;99.90;;;;;;5065096;28;20289;-81
2023/06/06 07:42:15;;;;;;;9.50;9.20;;;17.20;99.90;;;;;;5066242;28;20231;-80
2023/06/06 07:44:45;;;;;;;9.98;9.68;;;17.30;99.90;;;;;;5066717;28;20229;-80
2023/06/06 07:47:14;;;;;;;9.80;9.50;;;17.30;99.90;;;;;;5067243;28;20227;-83
2023/06/06 07:49:45;;;;;;;9.73;9.43;;;17.40;99.90;;;;;;5067619;28;20265;-82
2023/06/06 07:52:16;;;;;;;9.80;9.50;;;17.50;99.90;;;;;;5070022;28;20229;-83
2023/06/06 07:54:44;;;;;;;9.57;9.27;;;17.50;99.90;;;;;;5071174;28;20220;-81
2023/06/06 07:57:16;;;;;;;9.30;9.00;;;17.40;99.90;;;;;;5080339;28;20222;-83
2023/06/06 07:59:45;;;;;;;9.13;8.88;;;17.60;99.90;;;;;;5062929;28;20225;-82
2023/06/06 08:02:14;;;;;;;9.30;9.00;;;17.70;99.90;;;;;;5079841;28;20251;-81
2023/06/06 08:04:45;;;;;;;8.93;8.73;;;18.00;99.90;;;;;;5079542;28;20231;-81
2023/06/06 08:07:14;;;;;;;8.88;8.68;;;18.00;99.90;;;;;;5074802;28;20227;-82
2023/06/06 08:09:42;;;;;;;8.80;8.60;;;18.00;99.90;;;;;;5070342;28;20239;-80
2023/06/06 08:12:12;;;;;;;9.10;8.85;;;18.00;99.90;;;;;;5064479;28;20330;-81
2023/06/06 08:14:41;;;;;;;9.40;9.10;;;17.90;99.90;;;;;;5069915;28;20202;-82
2023/06/06 08:17:11;;;;;;;9.65;9.35;;;17.90;99.90;;;;;;5068775;28;20347;-83
2023/06/06 08:19:40;;;;;;;9.50;9.20;;;17.90;99.90;;;;;;5057200;28;20235;-84
2023/06/06 08:22:09;;;;;;;9.50;9.20;;;17.90;99.90;;;;;;5057462;28;20269;-83
2023/06/06 08:24:39;;;;;;;9.60;9.30;;;17.90;99.90;;;;;;5069327;28;20262;-83
2023/06/06 08:27:08;;;;;;;9.93;9.63;;;18.10;99.90;;;;;;5068459;28;20249;-83
2023/06/06 08:29:38;;;;;;;9.80;9.50;;;18.20;99.90;;;;;;5067181;28;20306;-83
2023/06/06 08:32:08;;;;;;;9.90;9.60;;;18.30;99.90;;;;;;5066167;28;20270;-82
2023/06/06 08:34:38;;;;;;;10.00;9.70;;;18.30;99.90;;;;;;5066966;28;20251;-82
2023/06/06 08:37:06;;;;;;;9.88;9.57;;;18.40;99.90;;;;;;5067364;28;20242;-83
2023/06/06 08:39:35;;;;;;;10.05;9.75;;;18.50;99.90;;;;;;5067936;28;20333;-83
2023/06/06 08:42:07;;;;;;;10.00;9.70;;;18.50;99.90;;;;;;5067817;28;20227;-83
2023/06/06 08:44:35;;;;;;;9.80;9.50;;;18.60;99.90;;;;;;5066788;28;20231;-83
2023/06/06 08:47:05;;;;;;;9.90;9.60;;;18.40;99.90;;;;;;5065876;28;20258;-86
2023/06/06 08:49:45;;;;;;;10.10;9.80;;;18.30;99.90;;;;;;5063869;28;20238;-86
2023/06/06 08:54:58;;;;;;;9.90;9.60;;;18.30;99.90;;;;;;5064488;28;20234;-83
2023/06/06 08:57:28;;;;;;;10.10;9.80;;;18.50;99.90;;;;;;5066377;28;20241;-83
2023/06/06 08:59:56;;;;;;;10.10;9.80;;;18.50;99.90;;;;;;5069810;28;20253;-83
2023/06/06 09:02:28;;;;;;;9.90;9.60;;;18.60;99.90;;;;;;5070182;28;20249;-81
2023/06/06 09:04:58;;;;;;;10.02;9.73;;;18.70;99.90;;;;;;5069056;28;20254;-81
2023/06/06 09:07:28;;;;;;;10.20;9.90;;;18.80;99.90;;;;;;5074784;28;20296;-81
2023/06/06 09:09:56;;;;;;;9.57;9.27;;;19.00;99.90;;;;;;5069969;28;20235;-81
2023/06/06 09:12:27;;;;;;;9.57;9.27;;;19.10;99.90;;;;;;5072803;28;20219;-83
2023/06/06 09:14:54;;;;;;;9.60;9.30;;;19.00;99.90;;;;;;5072254;28;20226;-83
2023/06/06 09:17:23;;;;;;;9.80;9.50;;;19.10;99.90;;;;;;5071066;28;20294;-85
2023/06/06 09:19:52;;;;;;;9.60;9.30;;;19.10;99.90;;;;;;5073004;28;20741;-84
2023/06/06 09:22:31;;;;;;;10.00;9.70;;;19.00;99.90;;;;;;5074493;28;20218;-84
2023/06/06 09:25:00;;;;;;;9.77;9.48;;;18.80;99.90;;;;;;5076796;28;20266;-84
2023/06/06 09:27:29;;;;;;;9.60;9.30;;;18.70;99.90;;;;;;5078884;28;20231;-84
2023/06/06 09:29:59;;;;;;;9.98;9.68;;;18.50;99.90;;;;;;5079148;28;20269;-84
2023/06/06 09:32:30;;;;;;;9.68;9.38;;;18.60;99.90;;;;;;5075340;28;20249;-85
2023/06/06 09:35:03;;;;;;;10.02;9.73;;;18.70;99.90;;;;;;5075816;28;20203;-80
2023/06/06 09:37:37;;;;;;;9.90;9.60;;;18.60;99.90;;;;;;5075298;28;20238;-81
2023/06/06 09:40:16;;;;;;;10.00;9.70;;;18.70;99.90;;;;;;5074901;28;20242;-81
2023/06/06 09:42:45;;;;;;;10.05;9.75;;;18.90;99.90;;;;;;5074747;28;20256;-79
2023/06/06 09:45:15;;;;;;;10.10;9.80;;;19.00;99.90;;;;;;5074832;28;20234;-80
2023/06/06 09:47:43;;;;;;;10.05;9.75;;;19.10;99.90;;;;;;5074980;28;20238;-79
2023/06/06 09:50:13;;;;;;;10.20;9.90;;;19.20;99.90;;;;;;5074668;28;20246;-80
2023/06/06 09:52:43;;;;;;;9.88;9.57;;;19.30;99.90;;;;;;5075209;28;20230;-80
2023/06/06 09:55:13;;;;;;;10.00;9.70;;;19.30;99.90;;;;;;5074519;28;20227;-80
2023/06/06 09:57:42;;;;;;;9.93;9.63;;;19.40;99.90;;;;;;5070145;28;20287;-81
2023/06/06 10:00:14;;;;;;;10.23;9.93;;;19.30;99.90;;;;;;5070585;28;20227;-79
2023/06/06 10:02:45;;;;;;;10.20;9.90;;;19.40;99.90;;;;;;5067988;28;20231;-80
2023/06/06 10:05:14;;;;;;;9.90;9.60;;;19.30;99.90;;;;;;5064787;28;20235;-80
2023/06/06 10:07:46;;;;;;;9.90;9.60;;;19.30;99.90;;;;;;5064730;28;20278;-79
2023/06/06 10:10:16;;;;;;;9.90;9.60;;;19.30;99.90;;;;;;5065150;28;20230;-80
2023/06/06 10:12:46;;;;;;;10.02;9.73;;;19.40;99.90;;;;;;5064455;28;20249;-80
2023/06/06 10:15:15;;;;;;;10.07;9.77;;;19.40;99.90;;;;;;5064131;28;20234;-80
2023/06/06 10:17:44;;;;;;;9.98;9.68;;;19.50;99.90;;;;;;5064561;28;20260;-80
2023/06/06 10:20:16;;;;;;;9.60;9.30;;;19.60;99.90;;;;;;5064629;28;20241;-80
2023/06/06 10:22:45;;;;;;;9.80;9.50;;;19.70;99.90;;;;;;5064962;28;20231;-79
2023/06/06 10:25:16;;;;;;;10.02;9.73;;;19.70;99.90;;;;;;5065390;28;20277;-80
2023/06/06 10:27:53;;;;;;;10.23;9.93;;;19.80;99.90;;;;;;5065811;28;20293;-80
2023/06/06 10:30:36;;;;;;;10.43;10.13;;;19.90;99.90;;;;;;5064138;28;20226;-80
2023/06/06 10:33:27;;;;;;;10.30;10.00;;;19.90;99.90;;;;;;5064746;28;20235;-80
2023/06/06 10:35:59;;;;;;;10.30;10.00;;;19.90;99.90;;;;;;5064328;28;20702;-80
2023/06/06 10:38:28;;;;;;;10.10;9.80;;;20.10;99.90;;;;;;5064699;28;20231;-80
2023/06/06 10:40:58;;;;;;;9.93;9.63;;;20.20;99.90;;;;;;5065060;28;20239;-82
2023/06/06 10:43:52;;;;;;;10.27;9.98;;;20.20;99.90;;;;;;5064933;28;20227;-81
2023/06/06 10:46:20;;;;;;;10.13;9.82;;;20.30;99.90;;;;;;5064430;28;20254;-82
2023/06/06 10:49:00;;;;;;;10.23;9.93;;;20.20;99.90;;;;;;5063906;28;20257;-82
2023/06/06 10:51:34;;;;;;;10.23;9.93;;;20.00;99.90;;;;;;5063120;28;20234;-81
2023/06/06 10:54:21;;;;;;;10.30;10.00;;;19.90;99.90;;;;;;5066062;28;20223;-80
2023/06/06 10:56:54;;;;;;;10.07;9.77;;;19.80;99.90;;;;;;5067469;28;20223;-80
2023/06/06 10:59:31;;;;;;;9.95;9.65;;;19.90;99.90;;;;;;5067532;28;20230;-81
2023/06/06 11:02:00;;;;;;;10.00;9.70;;;19.90;99.90;;;;;;5065575;28;20282;-79
2023/06/06 11:04:30;;;;;;;10.10;9.80;;;19.90;99.90;;;;;;5064868;28;20243;-82
2023/06/06 11:07:01;;;;;;;10.05;9.75;;;19.90;99.90;;;;;;5073444;28;20242;-81
2023/06/06 11:09:57;;;;;;;10.00;9.70;;;19.90;99.90;;;;;;5065347;28;20246;-80
2023/06/06 11:12:37;;;;;;;9.80;9.50;;;20.00;99.90;;;;;;5067513;28;20249;-82
2023/06/06 11:15:12;;;;;;;9.90;9.60;;;20.10;99.90;;;;;;5065222;28;20223;-84
2023/06/06 11:18:01;;;;;;;9.60;9.30;;;20.10;99.90;;;;;;5063593;28;20257;-83
2023/06/06 11:20:30;;;;;;;9.98;9.68;;;20.40;99.90;;;;;;5064702;28;20234;-81
2023/06/06 11:23:01;;;;;;;10.10;9.80;;;20.70;99.90;;;;;;5065284;28;20258;-81
2023/06/06 11:25:36;;;;;;;10.00;9.70;;;21.00;99.90;;;;;;5067270;28;20253;-82
2023/06/06 11:28:06;;;;;;;10.02;9.73;;;21.10;99.90;;;;;;5069209;28;20227;-83
2023/06/06 11:30:36;;;;;;;9.90;9.60;;;21.10;99.90;;;;;;5066666;28;20245;-81
2023/06/06 11:33:14;;;;;;;9.90;9.60;;;21.30;99.90;;;;;;5065820;28;20234;-85
2023/06/06 11:35:42;;;;;;;9.90;9.60;;;21.40;99.90;;;;;;5064270;28;20230;-82
2023/06/06 11:38:12;;;;;;;10.10;9.80;;;21.40;99.90;;;;;;5064256;28;20295;-82
2023/06/06 11:40:50;;;;;;;10.15;9.85;;;21.10;99.90;;;;;;5065958;28;20231;-83
2023/06/06 11:43:19;;;;;;;10.25;9.95;;;21.10;99.90;;;;;;5064763;28;20235;-83
2023/06/06 11:46:05;;;;;;;10.27;9.98;;;21.00;99.90;;;;;;5045496;28;20239;-82
2023/06/06 11:48:35;;;;;;;10.25;9.95;;;20.80;99.90;;;;;;5044701;28;20295;-84
2023/06/06 11:51:14;;;;;;;10.90;10.60;;;20.90;99.90;;;;;;5049051;28;20235;-83
2023/06/06 11:53:46;;;;;;;10.35;10.05;;;20.80;99.90;;;;;;5060291;28;20317;-81
2023/06/06 11:56:22;;;;;;;10.40;10.10;;;20.70;99.90;;;;;;5063335;28;20230;-81
2023/06/06 11:58:52;;;;;;;10.70;10.40;;;20.60;99.90;;;;;;5063485;28;20269;-80
2023/06/06 12:01:21;;;;;;;10.60;10.30;;;20.80;99.90;;;;;;5064460;28;20317;-81
2023/06/06 12:03:51;;;;;;;10.50;10.20;;;20.90;99.90;;;;;;5064248;28;20246;-82
2023/06/06 12:06:20;;;;;;;10.75;10.45;;;20.90;99.90;;;;;;5063965;28;20223;-81
2023/06/06 12:08:50;;;;;;;10.32;10.02;;;20.90;99.90;;;;;;5064251;28;20227;-81
2023/06/06 12:11:29;;;;;;;10.75;10.45;;;20.90;99.90;;;;;;5058653;28;20282;-81
2023/06/06 12:14:06;;;;;;;10.48;10.18;;;20.60;99.90;;;;;;5044189;28;20223;-80
2023/06/06 12:16:42;;;;;;;10.75;10.45;;;20.60;99.90;;;;;;5043548;28;20322;-81
2023/06/06 12:19:15;;;;;;;10.90;10.60;;;20.80;99.90;;;;;;5061945;28;20254;-81
2023/06/06 12:21:48;;;;;;;10.80;10.50;;;21.00;99.90;;;;;;5077091;28;20237;-80
2023/06/06 12:24:22;;;;;;;10.45;10.15;;;21.30;99.90;;;;;;5076902;28;20281;-81
2023/06/06 12:26:56;;;;;;;10.63;10.32;;;21.50;99.90;;;;;;5075064;28;20281;-80
2023/06/06 12:29:26;;;;;;;10.27;9.98;;;21.60;99.90;;;;;;5073653;28;20215;-80
2023/06/06 12:32:21;;;;;;;10.70;10.40;;;21.70;99.90;;;;;;5074722;28;20245;-81
2023/06/06 12:34:50;;;;;;;10.20;9.90;;;21.60;99.90;;;;;;5077756;28;20241;-81
2023/06/06 12:37:19;;;;;;;10.32;10.02;;;21.70;99.90;;;;;;5077158;28;20226;-80
2023/06/06 12:39:47;;;;;;;10.30;10.00;;;21.90;99.90;;;;;;5076075;28;20290;-81
2023/06/06 12:42:22;;;;;;;10.20;9.90;;;21.90;99.90;;;;;;5070069;28;20302;-80
2023/06/06 12:44:50;;;;;;;10.18;9.88;;;22.00;99.90;;;;;;5067520;28;20234;-79
2023/06/06 12:47:21;;;;;;;10.10;9.80;;;22.40;99.90;;;;;;5062032;28;20230;-80
2023/06/06 12:49:50;;;;;;;10.20;9.90;;;22.50;99.90;;;;;;5062159;28;20286;-79
2023/06/06 12:52:30;;;;;;;10.00;9.70;;;22.50;99.90;;;;;;5061958;28;20237;-81
2023/06/06 12:55:03;;;;;;;10.07;9.77;;;22.50;99.90;;;;;;5062072;28;20294;-80
2023/06/06 12:57:33;;;;;;;10.15;9.85;;;21.90;99.90;;;;;;5061463;28;20258;-81
2023/06/06 13:00:00;;;;;;;10.07;9.77;;;21.60;99.90;;;;;;5062074;28;20246;-82
2023/06/06 13:02:32;;;;;;;10.27;9.98;;;21.80;99.90;;;;;;5063037;28;20243;-80
2023/06/06 13:05:00;;;;;;;10.13;9.82;;;21.90;99.90;;;;;;5066432;28;20260;-80
2023/06/06 13:07:27;;;;;;;10.15;9.85;;;21.80;99.90;;;;;;5062623;28;20238;-81
2023/06/06 13:09:58;;;;;;;10.25;9.95;;;21.90;99.90;;;;;;5064191;28;20230;-82
2023/06/06 13:12:26;;;;;;;10.48;10.18;;;22.00;99.90;;;;;;5052227;28;20263;-81
2023/06/06 13:14:58;;;;;;;10.50;10.20;;;22.20;99.90;;;;;;5043611;28;20228;-80
2023/06/06 13:17:26;;;;;;;9.65;9.35;;;22.30;99.90;;;;;;5043155;28;20228;-81
2023/06/06 13:19:55;;;;;;;9.75;9.45;;;22.40;99.90;;;;;;5041833;28;20232;-81
2023/06/06 13:22:25;;;;;;;9.70;9.40;;;22.60;99.90;;;;;;5043435;28;20235;-83
2023/06/06 13:24:54;;;;;;;9.88;9.57;;;22.30;99.90;;;;;;5043570;28;20224;-84
2023/06/06 13:27:24;;;;;;;9.73;9.43;;;22.30;99.90;;;;;;5043077;28;20239;-84
2023/06/06 13:29:52;;;;;;;9.90;9.60;;;22.60;99.90;;;;;;5060266;28;20226;-82
2023/06/06 13:32:23;;;;;;;10.65;10.35;;;22.50;99.90;;;;;;5062289;28;20239;-80
2023/06/06 13:37:56;;;;;;;10.57;10.27;;;23.00;99.90;;;;;;5004775;28;20233;-82
2023/06/06 13:40:26;;;;;;;10.60;10.30;;;23.50;99.90;;;;;;5065056;28;20227;-80
2023/06/06 13:42:56;;;;;;;10.25;9.95;;;23.90;99.90;;;;;;5067125;28;20226;-79
2023/06/06 13:46:16;;;;;;;10.50;10.20;;;23.50;99.90;;;;;;5055688;28;20242;-79
2023/06/06 13:48:50;;;;;;;10.07;9.77;;;23.40;99.90;;;;;;5023765;28;20251;-80
2023/06/06 13:54:02;;;;;;;9.90;9.60;;;23.50;99.90;;;;;;5064247;28;21139;-78
2023/06/06 13:56:34;;;;;;;9.68;9.38;;;23.40;99.90;;;;;;5064381;28;20230;-81
2023/06/06 13:59:05;;;;;;;10.10;9.80;;;23.50;99.90;;;;;;5064816;28;20250;-82
2023/06/06 14:01:33;;;;;;;10.18;9.88;;;22.90;99.90;;;;;;5064315;28;20250;-80
2023/06/06 14:04:02;;;;;;;10.23;9.93;;;22.70;99.90;;;;;;5064153;28;20238;-80
2023/06/06 14:06:33;;;;;;;10.25;9.95;;;22.60;99.90;;;;;;5065027;28;20231;-82
2023/06/06 14:09:01;;;;;;;10.20;9.90;;;22.60;99.90;;;;;;5063786;28;20302;-81
2023/06/06 14:11:29;;;;;;;9.93;9.63;;;22.30;99.90;;;;;;5064434;28;20230;-80
2023/06/06 14:14:01;;;;;;;9.93;9.63;;;21.90;99.90;;;;;;5064595;28;20277;-81
2023/06/06 14:16:30;;;;;;;10.10;9.80;;;22.10;99.90;;;;;;5066693;28;20231;-81
2023/06/06 14:19:00;;;;;;;9.65;9.35;;;22.60;99.90;;;;;;5063872;28;20222;-78
2023/06/06 14:21:46;;;;;;;9.80;9.50;;;23.00;99.90;;;;;;5064183;28;20322;-79
2023/06/06 14:24:16;;;;;;;9.90;9.60;;;23.30;99.90;;;;;;5064194;28;20273;-79
2023/06/06 14:26:44;;;;;;;10.35;10.05;;;23.60;99.90;;;;;;5063047;28;20239;-79
2023/06/06 14:29:16;;;;;;;10.10;9.80;;;24.10;99.90;;;;;;5062471;28;20622;-79
2023/06/06 14:31:44;;;;;;;10.00;9.70;;;24.60;99.90;;;;;;5062552;28;20255;-79
2023/06/06 14:34:13;;;;;;;9.00;8.80;;;24.80;99.90;;;;;;5052702;28;20231;-79
2023/06/06 14:36:44;;;;;;;9.60;9.30;;;25.00;99.90;;;;;;5061679;28;20265;-79
2023/06/06 14:39:12;;;;;;;9.43;9.13;;;25.30;99.90;;;;;;5059205;28;20259;-79
2023/06/06 14:41:43;;;;;;;9.20;8.90;;;25.30;99.90;;;;;;5063356;28;20237;-80
2023/06/06 14:44:12;;;;;;;9.00;8.80;;;25.40;99.90;;;;;;5064360;28;20226;-80
2023/06/06 14:46:42;;;;;;;9.07;8.88;;;25.80;99.90;;;;;;5064172;28;20242;-80
2023/06/06 14:49:10;;;;;;;9.38;9.07;;;26.30;99.90;;;;;;5063610;28;20234;-81
2023/06/06 14:51:40;;;;;;;10.07;9.77;;;26.70;99.90;;;;;;5064971;28;20772;-81
2023/06/06 14:54:11;;;;;;;9.80;9.50;;;26.90;99.90;;;;;;5063072;28;20231;-83
2023/06/06 14:56:39;;;;;;;9.73;9.43;;;26.50;99.90;;;;;;5064302;28;20289;-83
2023/06/06 14:59:12;;;;;;;9.80;9.50;;;26.20;99.90;;;;;;5064172;28;20335;-84
2023/06/06 15:01:40;;;;;;;10.18;9.88;;;26.10;99.90;;;;;;5069671;28;20221;-81
2023/06/06 15:04:08;;;;;;;9.90;9.60;;;25.60;99.90;;;;;;5067828;28;20230;-82
2023/06/06 15:06:36;;;;;;;9.70;9.40;;;25.40;99.90;;;;;;5064476;28;21048;-81
2023/06/06 15:09:06;;;;;;;9.93;9.63;;;25.60;99.90;;;;;;5064752;28;20223;-83
2023/06/06 15:11:38;;;;;;;9.93;9.63;;;25.30;99.90;;;;;;5064496;28;20271;-82
2023/06/06 15:14:06;;;;;;;9.93;9.63;;;24.40;99.90;;;;;;5064960;28;20234;-81
2023/06/06 15:16:34;;;;;;;10.00;9.70;;;24.10;99.90;;;;;;5067214;28;20241;-83
2023/06/06 15:19:13;;;;;;;9.90;9.60;;;24.10;99.90;;;;;;5067295;28;20261;-83
2023/06/06 15:21:41;;;;;;;9.88;9.57;;;23.90;99.90;;;;;;5065929;28;20227;-81
2023/06/06 15:24:23;;;;;;;10.50;10.20;;;23.30;99.90;;;;;;5066945;28;20257;-82
2023/06/06 15:27:00;;;;;;;10.18;9.88;;;23.00;99.90;;;;;;5080105;28;20230;-83
2023/06/06 15:29:28;;;;;;;10.40;10.10;;;23.00;99.90;;;;;;5079967;28;20211;-82
2023/06/06 15:31:58;;;;;;;9.90;9.60;;;23.00;99.90;;;;;;5079279;28;20246;-83
2023/06/06 15:34:26;;;;;;;10.18;9.88;;;22.40;99.90;;;;;;5079102;28;20210;-82
2023/06/06 15:36:56;;;;;;;10.15;9.85;;;22.10;99.90;;;;;;5071357;28;20235;-81
2023/06/06 15:39:25;;;;;;;9.65;9.35;;;22.50;99.90;;;;;;5065306;28;20234;-80
2023/06/06 15:41:58;;;;;;;9.60;9.30;;;23.20;99.90;;;;;;5067097;28;20215;-79
2023/06/06 15:44:25;;;;;;;9.50;9.20;;;23.70;99.90;;;;;;5067502;28;20230;-80
2023/06/06 15:46:54;;;;;;;9.60;9.30;;;23.90;99.90;;;;;;5064842;28;20261;-80
2023/06/06 15:49:23;;;;;;;8.90;8.70;;;24.00;99.90;;;;;;5064617;28;20241;-81
2023/06/06 15:51:53;;;;;;;8.85;8.65;;;24.10;99.90;;;;;;5065435;28;20231;-81
2023/06/06 15:54:24;;;;;;;9.00;8.80;;;24.40;99.90;;;;;;5065014;28;20227;-81
2023/06/06 15:56:53;;;;;;;8.95;8.75;;;24.70;99.90;;;;;;5064009;28;20231;-80
2023/06/06 15:59:21;;;;;;;9.10;8.85;;;24.80;99.90;;;;;;5062688;28;20291;-80
2023/06/06 16:01:50;;;;;;;9.70;9.40;;;25.00;99.90;;;;;;5064948;28;20238;-81
2023/06/06 16:04:22;;;;;;;9.40;9.10;;;25.20;99.90;;;;;;5063058;28;20277;-80
2023/06/06 16:06:50;;;;;;;9.60;9.30;;;25.10;99.90;;;;;;5062833;28;20230;-80
2023/06/06 16:09:17;;;;;;;9.43;9.13;;;24.80;99.90;;;;;;5062977;28;20227;-80
2023/06/06 16:11:49;;;;;;;9.60;9.30;;;24.40;99.90;;;;;;5061522;28;20241;-80
2023/06/06 16:14:24;;;;;;;9.65;9.35;;;24.60;99.90;;;;;;5062815;28;20242;-80
2023/06/06 16:16:52;;;;;;;9.40;9.10;;;24.80;99.90;;;;;;5062469;28;20226;-81
2023/06/06 16:19:32;;;;;;;9.68;9.38;;;25.00;99.90;;;;;;5062426;28;20238;-81
2023/06/06 16:22:00;;;;;;;9.40;9.10;;;25.10;99.90;;;;;;5064052;28;20280;-81
2023/06/06 16:24:27;;;;;;;9.57;9.27;;;25.50;99.90;;;;;;5067677;28;20269;-82
2023/06/06 16:26:56;;;;;;;9.27;8.98;;;25.60;99.90;;;;;;5067243;28;20230;-82
2023/06/06 16:29:27;;;;;;;8.93;8.73;;;25.20;99.90;;;;;;5066211;28;20270;-81
2023/06/06 16:31:55;;;;;;;9.50;9.20;;;25.00;99.90;;;;;;5064989;28;20230;-81
2023/06/06 16:34:24;;;;;;;9.60;9.30;;;24.80;99.90;;;;;;5064418;28;20249;-81
2023/06/06 16:36:54;;;;;;;9.40;9.10;;;24.80;99.90;;;;;;5067151;28;20289;-81
2023/06/06 16:39:22;;;;;;;9.35;9.05;;;24.80;99.90;;;;;;5064378;28;20333;-81
2023/06/06 16:41:52;;;;;;;9.60;9.30;;;25.10;99.90;;;;;;5064506;28;20246;-83
2023/06/06 16:44:21;;;;;;;9.27;8.98;;;25.30;99.90;;;;;;5066833;28;20227;-80
2023/06/06 16:46:52;;;;;;;9.60;9.30;;;25.60;99.90;;;;;;5068116;28;20238;-80
2023/06/06 16:49:22;;;;;;;9.85;9.55;;;25.40;99.90;;;;;;5065196;28;20250;-81
2023/06/06 16:51:51;;;;;;;9.88;9.57;;;25.60;99.90;;;;;;5064942;28;20223;-80
2023/06/06 16:54:20;;;;;;;9.50;9.20;;;25.60;99.90;;;;;;5065297;28;20222;-80
2023/06/06 16:56:49;;;;;;;9.70;9.40;;;25.20;99.90;;;;;;5065628;28;20235;-81
2023/06/06 16:59:18;;;;;;;9.98;9.68;;;25.00;99.90;;;;;;5065738;28;20265;-81
2023/06/06 17:01:47;;;;;;;10.15;9.85;;;25.00;99.90;;;;;;5068187;28;20230;-81
2023/06/06 17:04:17;;;;;;;10.02;9.73;;;25.00;99.90;;;;;;5064362;28;20253;-80
2023/06/06 17:06:46;;;;;;;10.20;9.90;;;25.30;99.90;;;;;;5064213;28;20230;-81
2023/06/06 17:09:15;;;;;;;10.18;9.88;;;25.40;99.90;;;;;;5064386;28;20319;-81
2023/06/06 17:11:45;;;;;;;10.10;9.80;;;25.60;99.90;;;;;;5064675;28;20226;-80
2023/06/06 17:14:15;;;;;;;10.02;9.73;;;25.30;99.90;;;;;;5064467;28;20238;-80
2023/06/06 17:16:45;;;;;;;10.07;9.77;;;25.20;99.90;;;;;;5064923;28;20317;-80
2023/06/06 17:19:13;;;;;;;10.10;9.80;;;25.30;99.90;;;;;;5071084;28;20230;-80
2023/06/06 17:21:43;;;;;;;10.00;9.70;;;25.50;99.90;;;;;;5067237;28;20278;-82
2023/06/06 17:24:11;;;;;;;10.07;9.77;;;25.30;99.90;;;;;;5070960;28;20249;-80
2023/06/06 17:26:41;;;;;;;9.60;9.30;;;25.30;99.90;;;;;;5072265;28;20261;-81
2023/06/06 17:29:11;;;;;;;9.30;9.00;;;25.00;99.90;;;;;;5095393;22;20238;-83
2023/06/06 17:31:40;;;;;;;9.57;9.27;;;25.00;99.90;;;;;;5084955;28;20226;-82
2023/06/06 17:34:11;;;;;;;9.80;9.50;;;25.00;99.90;;;;;;5084789;28;20243;-83
2023/06/06 17:36:41;;;;;;;9.57;9.27;;;24.80;99.90;;;;;;5085920;28;20226;-85
2023/06/06 17:39:12;;;;;;;9.70;9.40;;;24.70;99.90;;;;;;5078026;28;20242;-85
2023/06/06 17:41:39;;;;;;;9.40;9.10;;;24.70;99.90;;;;;;5067797;28;20223;-84
2023/06/06 17:44:08;;;;;;;9.32;9.02;;;24.50;99.90;;;;;;5067119;28;20242;-83
2023/06/06 17:46:37;;;;;;;9.88;9.57;;;24.40;99.90;;;;;;5067003;28;20393;-84
2023/06/06 17:49:07;;;;;;;9.63;9.32;;;24.40;99.90;;;;;;5067368;28;20247;-85
2023/06/06 17:51:37;;;;;;;9.50;9.20;;;24.10;99.90;;;;;;5066588;28;20207;-85
2023/06/06 17:54:07;;;;;;;9.60;9.30;;;24.00;99.90;;;;;;5066533;28;20226;-85
2023/06/06 17:56:38;;;;;;;9.50;9.20;;;23.70;99.90;;;;;;5066735;28;20330;-84
2023/06/06 17:59:05;;;;;;;9.30;9.00;;;23.60;99.90;;;;;;5066879;28;20230;-84
2023/06/06 18:01:35;;;;;;;9.60;9.30;;;23.50;99.90;;;;;;5067042;28;20235;-83
2023/06/06 18:04:06;;;;;;;9.93;9.63;;;23.40;99.90;;;;;;5067102;28;20430;-84
2023/06/06 18:06:34;;;;;;;9.90;9.60;;;23.20;99.90;;;;;;5065016;28;20234;-84
2023/06/06 18:09:02;;;;;;;10.13;9.82;;;22.90;99.90;;;;;;5064215;28;20294;-84
2023/06/06 18:11:33;;;;;;;10.40;10.10;;;22.60;99.90;;;;;;5065166;28;20317;-84
2023/06/06 18:14:12;;;;;;;10.10;9.80;;;22.50;99.90;;;;;;5065409;28;20227;-83
2023/06/06 18:16:41;;;;;;;9.75;9.45;;;22.50;99.90;;;;;;5064625;28;20234;-86
2023/06/06 18:19:12;;;;;;;10.00;9.70;;;22.40;99.90;;;;;;5064614;28;20234;-84
2023/06/06 18:21:44;;;;;;;9.82;9.52;;;22.50;99.90;;;;;;5064670;28;20233;-84
2023/06/06 18:24:12;;;;;;;9.30;9.00;;;22.40;99.90;;;;;;5064268;28;20230;-84
2023/06/06 18:26:50;;;;;;;9.27;9.00;;;22.30;99.90;;;;;;5064110;28;20335;-84
2023/06/06 18:29:20;;;;;;;9.60;9.30;;;22.10;99.90;;;;;;5060935;28;20270;-85
2023/06/06 18:31:47;;;;;;;9.85;9.55;;;21.60;99.90;;;;;;5062924;28;20289;-84
2023/06/06 18:34:16;;;;;;;9.80;9.50;;;21.50;99.90;;;;;;5062625;28;20231;-85
2023/06/06 18:36:46;;;;;;;10.38;10.07;;;21.10;99.90;;;;;;5063357;28;21042;-84